createdAt,value
2017-10-17T00:00:53.725Z,9.33
2017-10-17T00:03:22.946Z,8.97
2017-10-17T00:05:52.159Z,10.20
2017-10-17T00:08:22.872Z,9.37
2017-10-17T00:10:52.107Z,9.70
2017-10-17T00:13:21.302Z,10.00
2017-10-17T00:15:51.284Z,9.97
2017-10-17T00:18:20.971Z,9.73
2017-10-17T00:20:50.176Z,10.47
2017-10-17T00:23:19.431Z,10.17
2017-10-17T00:25:49.415Z,9.80
2017-10-17T00:28:18.625Z,10.30
2017-10-17T00:30:50.152Z,9.20
2017-10-17T00:33:21.128Z,9.63
2017-10-17T00:35:56.516Z,9.93
2017-10-17T00:38:26.502Z,10.10
2017-10-17T00:40:55.726Z,9.10
2017-10-17T00:43:25.687Z,10.33
2017-10-17T00:45:55.832Z,10.27
2017-10-17T00:48:25.068Z,9.97
2017-10-17T00:50:54.297Z,10.00
2017-10-17T00:53:24.363Z,9.00
2017-10-17T00:55:53.659Z,10.87
2017-10-17T00:58:26.504Z,10.03
2017-10-17T01:00:55.809Z,9.90
2017-10-17T01:03:27.975Z,9.60
2017-10-17T01:05:57.279Z,9.67
2017-10-17T01:08:27.232Z,10.00
2017-10-17T01:10:56.477Z,9.37
2017-10-17T01:13:26.472Z,10.20
2017-10-17T01:15:55.782Z,9.47
2017-10-17T01:18:25.015Z,9.80
2017-10-17T01:20:56.825Z,10.70
2017-10-17T01:37:01.700Z,9.30
2017-10-17T01:39:33.772Z,9.57
2017-10-17T01:42:03.052Z,10.73
2017-10-17T01:44:35.564Z,11.30
2017-10-17T01:47:07.727Z,10.50
2017-10-17T01:49:55.203Z,10.50
2017-10-17T01:52:27.819Z,9.60
2017-10-17T01:55:01.860Z,11.47
2017-10-17T01:57:34.733Z,9.77
2017-10-17T02:00:03.922Z,10.40
2017-10-17T02:02:33.224Z,11.27
2017-10-17T02:05:02.486Z,10.97
2017-10-17T02:07:32.479Z,11.07
2017-10-17T02:10:08.204Z,10.80
2017-10-17T02:12:37.472Z,9.50
2017-10-17T02:15:06.715Z,10.40
2017-10-17T02:17:36.746Z,10.47
2017-10-17T02:20:06.039Z,10.00
2017-10-17T02:22:36.705Z,10.67
2017-10-17T02:38:29.136Z,9.43
2017-10-17T02:41:02.218Z,10.80
2017-10-17T02:43:38.451Z,9.50
2017-10-17T02:46:07.648Z,9.20
2017-10-17T02:48:48.415Z,9.93
2017-10-17T02:51:19.157Z,9.10
2017-10-17T02:53:48.516Z,10.23
2017-10-17T02:56:17.748Z,9.73
2017-10-17T02:58:47.034Z,11.33
2017-10-17T03:01:16.980Z,9.63
2017-10-17T03:03:49.718Z,10.70
2017-10-17T03:06:18.976Z,11.23
2017-10-17T03:08:48.931Z,10.00
2017-10-17T03:11:18.226Z,9.63
2017-10-17T03:13:49.003Z,10.80
2017-10-17T03:16:19.090Z,10.00
2017-10-17T03:18:49.731Z,9.47
2017-10-17T03:21:23.462Z,10.20
2017-10-17T03:24:13.647Z,9.17
2017-10-17T03:26:43.648Z,10.03
2017-10-17T03:29:12.872Z,9.57
2017-10-17T03:31:42.121Z,10.67
2017-10-17T03:34:25.832Z,11.10
2017-10-17T03:50:44.119Z,10.27
2017-10-17T04:07:06.227Z,10.50
2017-10-17T04:09:39.983Z,12.27
2017-10-17T04:12:09.203Z,10.57
2017-10-17T04:14:55.205Z,11.10
2017-10-17T04:18:01.500Z,10.60
2017-10-17T04:20:45.289Z,11.70
2017-10-17T04:37:02.239Z,10.87
2017-10-17T04:39:32.276Z,11.50
2017-10-17T04:42:28.225Z,11.87
2017-10-17T04:59:08.139Z,12.80
2017-10-17T05:01:37.356Z,12.93
2017-10-17T05:04:13.069Z,14.10
2017-10-17T05:06:43.060Z,13.13
2017-10-17T05:09:23.707Z,12.73
2017-10-17T05:11:52.899Z,12.53
2017-10-17T05:14:43.212Z,13.63
2017-10-17T05:17:18.599Z,13.03
2017-10-17T05:19:50.375Z,13.27
2017-10-17T05:22:24.170Z,13.37
2017-10-17T05:25:00.774Z,13.40
2017-10-17T05:41:32.434Z,13.87
2017-10-17T05:57:41.762Z,13.50
2017-10-17T06:00:11.224Z,14.60
2017-10-17T06:02:40.824Z,14.03
2017-10-17T06:05:10.065Z,15.83
2017-10-17T06:07:39.275Z,15.63
2017-10-17T06:10:09.281Z,15.30
2017-10-17T06:12:38.491Z,13.90
2017-10-17T06:15:08.504Z,14.17
2017-10-17T06:17:38.531Z,15.50
2017-10-17T06:20:08.529Z,14.70
2017-10-17T06:22:37.752Z,15.20
2017-10-17T06:25:07.750Z,15.17
2017-10-17T06:27:37.749Z,14.27
2017-10-17T06:30:08.502Z,14.80
2017-10-17T06:32:38.490Z,16.63
2017-10-17T06:35:07.759Z,15.13
2017-10-17T06:37:36.979Z,15.90
2017-10-17T06:40:06.197Z,16.10
2017-10-17T06:42:35.455Z,15.37
2017-10-17T06:45:04.651Z,16.13
2017-10-17T06:47:33.855Z,16.67
2017-10-17T06:50:03.111Z,15.30
2017-10-17T06:52:33.121Z,16.63
2017-10-17T06:55:02.396Z,15.90
2017-10-17T06:57:31.739Z,17.67
2017-10-17T07:00:01.009Z,16.90
2017-10-17T07:02:30.254Z,16.43
2017-10-17T07:04:59.467Z,15.47
2017-10-17T07:07:28.700Z,15.40
2017-10-17T07:09:58.011Z,15.20
2017-10-17T07:12:28.863Z,17.23
2017-10-17T07:14:58.827Z,16.80
2017-10-17T07:17:28.069Z,14.23
2017-10-17T07:19:58.039Z,14.30
2017-10-17T07:22:27.274Z,16.37
2017-10-17T07:24:57.256Z,15.93
2017-10-17T07:27:26.479Z,16.17
2017-10-17T07:29:56.093Z,16.27
2017-10-17T07:32:26.522Z,16.50
2017-10-17T07:34:55.795Z,15.87
2017-10-17T07:37:25.004Z,17.23
2017-10-17T07:39:54.249Z,16.60
2017-10-17T07:42:23.491Z,16.23
2017-10-17T07:44:52.699Z,15.30
2017-10-17T07:47:21.982Z,15.37
2017-10-17T07:49:51.387Z,17.00
2017-10-17T07:52:20.648Z,16.17
2017-10-17T07:54:49.863Z,17.10
2017-10-17T07:57:19.095Z,16.27
2017-10-17T07:59:48.319Z,17.17
2017-10-17T08:02:17.548Z,15.90
2017-10-17T08:04:46.775Z,17.27
2017-10-17T08:07:15.996Z,17.17
2017-10-17T08:09:45.993Z,17.50
2017-10-17T08:12:15.244Z,20.00
2017-10-17T08:14:44.460Z,16.30
2017-10-17T08:17:13.768Z,18.50
2017-10-17T08:19:42.979Z,18.37
2017-10-17T08:22:12.255Z,18.37
2017-10-17T08:24:41.466Z,17.60
2017-10-17T08:27:10.788Z,18.47
2017-10-17T08:29:40.023Z,19.33
2017-10-17T08:32:09.227Z,20.60
2017-10-17T08:34:38.462Z,17.97
2017-10-17T08:37:07.663Z,18.00
2017-10-17T08:39:37.656Z,19.40
2017-10-17T08:42:06.907Z,19.20
2017-10-17T08:44:36.999Z,18.77
2017-10-17T08:47:06.220Z,19.70
2017-10-17T08:49:36.228Z,19.90
2017-10-17T08:52:06.203Z,19.30
2017-10-17T08:54:35.448Z,19.83
2017-10-17T08:57:05.428Z,20.03
2017-10-17T08:59:34.635Z,20.40
2017-10-17T09:02:05.378Z,20.13
2017-10-17T09:04:34.587Z,19.80
2017-10-17T09:07:04.724Z,17.77
2017-10-17T09:09:34.706Z,19.40
2017-10-17T09:12:03.947Z,19.47
2017-10-17T09:14:33.886Z,19.80
2017-10-17T09:17:03.148Z,20.00
2017-10-17T09:19:33.113Z,21.10
2017-10-17T09:22:02.332Z,19.97
2017-10-17T09:24:31.550Z,18.97
2017-10-17T09:27:01.561Z,20.43
2017-10-17T09:29:30.788Z,20.67
2017-10-17T09:32:00.020Z,20.50
2017-10-17T09:34:29.265Z,20.60
2017-10-17T09:36:59.348Z,22.63
2017-10-17T09:39:28.576Z,20.67
2017-10-17T09:41:58.548Z,22.03
2017-10-17T09:44:27.792Z,22.17
2017-10-17T09:46:57.772Z,20.80
2017-10-17T09:49:26.996Z,21.37
2017-10-17T09:51:56.987Z,21.00
2017-10-17T09:54:26.215Z,20.60
2017-10-17T09:56:56.212Z,21.63
2017-10-17T09:59:25.428Z,22.00
2017-10-17T10:01:55.443Z,22.57
2017-10-17T10:04:25.407Z,20.40
2017-10-17T10:06:54.651Z,22.27
2017-10-17T10:09:23.959Z,22.87
2017-10-17T10:11:53.473Z,24.20
2017-10-17T10:14:22.696Z,23.00
2017-10-17T10:16:51.927Z,22.73
2017-10-17T10:19:21.158Z,22.37
2017-10-17T10:21:51.136Z,23.47
2017-10-17T10:24:20.380Z,21.90
2017-10-17T10:26:49.588Z,26.93
2017-10-17T10:29:18.828Z,23.43
2017-10-17T10:31:48.032Z,24.80
2017-10-17T10:34:17.259Z,25.03
2017-10-17T10:36:47.330Z,26.53
2017-10-17T10:39:16.551Z,26.80
2017-10-17T10:41:46.059Z,26.20
2017-10-17T10:44:15.281Z,27.47
2017-10-17T10:46:45.275Z,29.30
2017-10-17T10:49:15.257Z,29.57
2017-10-17T10:51:44.489Z,29.33
2017-10-17T10:54:13.683Z,30.37
2017-10-17T10:56:42.916Z,29.47
2017-10-17T10:59:12.137Z,29.30
2017-10-17T11:01:41.363Z,30.10
2017-10-17T11:04:10.568Z,28.50
2017-10-17T11:06:39.799Z,30.07
2017-10-17T11:09:09.048Z,29.27
2017-10-17T11:11:38.266Z,28.93
2017-10-17T11:14:07.491Z,29.17
2017-10-17T11:16:37.494Z,27.83
2017-10-17T11:19:06.733Z,28.70
2017-10-17T11:21:35.940Z,30.43
2017-10-17T11:24:05.194Z,28.67
2017-10-17T11:26:35.167Z,28.57
2017-10-17T11:29:04.407Z,31.20
2017-10-17T11:31:34.379Z,28.40
2017-10-17T11:34:03.617Z,29.00
2017-10-17T11:36:32.851Z,27.87
2017-10-17T11:39:02.858Z,29.87
2017-10-17T11:55:09.671Z,24.67
2017-10-17T11:57:40.396Z,27.70
2017-10-17T12:00:09.665Z,27.80
2017-10-17T12:02:38.892Z,26.30
2017-10-17T12:05:08.132Z,29.60
2017-10-17T12:07:38.199Z,27.67
2017-10-17T12:10:07.658Z,29.90
2017-10-17T12:12:37.783Z,29.90
2017-10-17T12:15:07.028Z,32.80
2017-10-17T12:17:36.273Z,30.73
2017-10-17T12:20:05.505Z,29.03
2017-10-17T12:22:34.872Z,32.20
2017-10-17T12:25:04.118Z,27.30
2017-10-17T12:27:33.375Z,29.87
2017-10-17T12:30:02.716Z,30.47
2017-10-17T12:32:31.963Z,29.90
2017-10-17T12:35:01.923Z,30.27
2017-10-17T12:37:31.290Z,31.53
2017-10-17T12:40:00.518Z,28.97
2017-10-17T12:42:29.753Z,31.20
2017-10-17T12:44:58.973Z,31.03
2017-10-17T12:47:28.178Z,30.90
2017-10-17T12:49:57.407Z,32.20
2017-10-17T12:52:26.638Z,30.77
2017-10-17T12:54:55.864Z,31.27
2017-10-17T12:57:25.887Z,32.33
2017-10-17T12:59:56.009Z,30.77
2017-10-17T13:04:48.063Z,31.73
2017-10-17T13:07:17.658Z,31.23
2017-10-17T13:09:47.625Z,34.60
2017-10-17T13:12:20.038Z,33.03
2017-10-17T13:14:50.055Z,34.53
2017-10-17T13:17:20.072Z,33.13
2017-10-17T13:19:50.091Z,34.13
2017-10-17T13:22:19.336Z,32.60
2017-10-17T13:24:48.622Z,33.47
2017-10-17T13:27:17.847Z,34.20
2017-10-17T13:29:47.219Z,33.23
2017-10-17T13:32:16.537Z,33.37
2017-10-17T13:34:45.828Z,34.20
2017-10-17T13:37:15.101Z,33.20
2017-10-17T13:39:44.438Z,34.50
2017-10-17T13:42:14.267Z,33.70
2017-10-17T13:44:43.523Z,32.93
2017-10-17T13:47:12.751Z,34.83
2017-10-17T13:49:42.129Z,33.87
2017-10-17T13:52:11.383Z,35.37
2017-10-17T13:54:41.368Z,36.30
2017-10-17T13:57:10.587Z,33.87
2017-10-17T13:59:39.863Z,34.57
2017-10-17T14:02:09.277Z,33.77
2017-10-17T14:04:38.490Z,33.50
2017-10-17T14:07:08.498Z,33.00
2017-10-17T14:09:38.535Z,33.80
2017-10-17T14:12:08.540Z,34.07
2017-10-17T14:14:38.552Z,33.70
2017-10-17T14:17:08.568Z,37.53
2017-10-17T14:19:38.703Z,35.93
2017-10-17T14:22:08.672Z,35.47
2017-10-17T14:24:37.933Z,36.33
2017-10-17T14:27:07.155Z,34.43
2017-10-17T14:29:36.397Z,35.47
2017-10-17T14:32:06.471Z,35.50
2017-10-17T14:34:35.708Z,35.93
2017-10-17T14:37:04.919Z,35.07
2017-10-17T14:39:35.021Z,34.27
2017-10-17T14:42:04.243Z,34.20
2017-10-17T14:44:34.215Z,34.17
2017-10-17T14:47:03.442Z,32.87
2017-10-17T14:49:33.452Z,33.30
2017-10-17T14:52:02.701Z,36.60
2017-10-17T14:54:31.915Z,30.90
2017-10-17T14:57:01.255Z,33.67
2017-10-17T14:59:31.252Z,35.77
2017-10-17T15:02:00.511Z,35.60
2017-10-17T15:04:29.723Z,34.90
2017-10-17T15:06:58.957Z,32.50
2017-10-17T15:09:29.667Z,37.10
2017-10-17T15:11:58.917Z,34.17
2017-10-17T15:14:28.141Z,32.30
2017-10-17T15:16:57.367Z,41.03
2017-10-17T15:19:26.728Z,37.23
2017-10-17T15:21:55.980Z,32.80
2017-10-17T15:24:25.220Z,36.70
2017-10-17T15:26:55.228Z,34.40
2017-10-17T15:29:24.485Z,33.87
2017-10-17T15:31:53.751Z,31.13
2017-10-17T15:34:22.986Z,32.03
2017-10-17T15:36:52.203Z,32.63
2017-10-17T15:39:22.208Z,30.40
2017-10-17T15:41:51.710Z,31.13
2017-10-17T15:44:21.733Z,31.27
2017-10-17T15:46:51.740Z,30.90
2017-10-17T15:51:57.099Z,33.20
2017-10-17T15:54:26.328Z,30.80
2017-10-17T15:56:55.607Z,30.67
2017-10-17T15:59:25.672Z,28.43
2017-10-17T16:01:54.927Z,33.63
2017-10-17T16:04:24.935Z,30.97
2017-10-17T16:06:54.961Z,31.30
2017-10-17T16:09:24.984Z,33.17
2017-10-17T16:11:54.192Z,34.07
2017-10-17T16:14:23.439Z,33.70
2017-10-17T16:16:52.748Z,30.90
2017-10-17T16:19:22.020Z,31.87
2017-10-17T16:21:51.244Z,34.10
2017-10-17T16:24:20.496Z,33.30
2017-10-17T16:26:49.717Z,34.00
2017-10-17T16:29:18.940Z,32.23
2017-10-17T16:31:48.160Z,30.60
2017-10-17T16:34:18.172Z,32.33
2017-10-17T16:36:48.177Z,32.37
2017-10-17T16:39:17.445Z,30.47
2017-10-17T16:41:46.699Z,31.97
2017-10-17T16:44:15.933Z,31.87
2017-10-17T16:46:45.160Z,35.33
2017-10-17T16:49:14.547Z,33.30
2017-10-17T16:51:43.791Z,32.03
2017-10-17T16:54:13.781Z,33.20
2017-10-17T16:56:43.069Z,33.17
2017-10-17T16:59:12.419Z,30.77
2017-10-17T17:01:41.689Z,31.07
2017-10-17T17:04:10.922Z,33.03
2017-10-17T17:06:40.145Z,32.70
2017-10-17T17:09:09.432Z,31.30
2017-10-17T17:11:38.690Z,32.57
2017-10-17T17:14:08.737Z,32.30
2017-10-17T17:16:37.964Z,30.77
2017-10-17T17:19:07.225Z,32.90
2017-10-17T17:21:36.463Z,35.07
2017-10-17T17:24:05.729Z,33.80
2017-10-17T17:26:35.026Z,35.47
2017-10-17T17:29:04.277Z,37.10
2017-10-17T17:31:33.511Z,34.30
2017-10-17T17:34:03.533Z,34.60
2017-10-17T17:36:32.761Z,31.73
2017-10-17T17:39:02.037Z,31.27
2017-10-17T17:41:31.268Z,32.07
2017-10-17T17:44:00.503Z,32.83
2017-10-17T17:46:29.767Z,31.07
2017-10-17T17:48:59.065Z,31.50
2017-10-17T17:51:28.332Z,33.70
2017-10-17T17:53:57.636Z,36.43
2017-10-17T17:56:26.884Z,31.77
2017-10-17T17:58:56.119Z,32.37
2017-10-17T18:01:25.574Z,33.07
2017-10-17T18:03:54.828Z,31.90
2017-10-17T18:06:24.063Z,32.97
2017-10-17T18:08:53.369Z,37.00
2017-10-17T18:11:22.595Z,32.57
2017-10-17T18:13:52.592Z,32.87
2017-10-17T18:16:21.840Z,35.80
2017-10-17T18:18:51.088Z,32.70
2017-10-17T18:21:20.297Z,33.70
2017-10-17T18:23:50.344Z,36.03
2017-10-17T18:26:19.629Z,32.90
2017-10-17T18:28:48.878Z,33.23
2017-10-17T18:31:18.121Z,38.00
2017-10-17T18:33:48.146Z,36.63
2017-10-17T18:36:17.490Z,36.73
2017-10-17T18:38:46.738Z,36.13
2017-10-17T18:41:16.135Z,37.13
2017-10-17T18:43:46.156Z,36.67
2017-10-17T18:46:16.159Z,36.27
2017-10-17T18:48:46.140Z,38.10
2017-10-17T18:51:15.381Z,38.33
2017-10-17T18:53:45.407Z,38.70
2017-10-17T18:56:14.672Z,39.20
2017-10-17T18:58:43.917Z,36.47
2017-10-17T19:01:13.148Z,36.53
2017-10-17T19:03:42.397Z,35.00
2017-10-17T19:06:12.414Z,34.87
2017-10-17T19:08:41.667Z,35.70
2017-10-17T19:11:10.920Z,36.63
2017-10-17T19:13:40.131Z,38.20
2017-10-17T19:16:09.401Z,37.60
2017-10-17T19:18:39.388Z,41.27
2017-10-17T19:21:08.668Z,40.47
2017-10-17T19:23:37.952Z,38.67
2017-10-17T19:26:07.198Z,40.27
2017-10-17T19:28:37.328Z,40.20
2017-10-17T19:31:07.355Z,39.23
2017-10-17T19:33:37.375Z,40.83
2017-10-17T19:36:06.634Z,40.53
2017-10-17T19:38:35.910Z,42.50
2017-10-17T19:41:05.135Z,38.27
2017-10-17T19:43:34.404Z,40.73
2017-10-17T19:46:03.643Z,40.60
2017-10-17T19:48:33.702Z,37.27
2017-10-17T19:51:02.937Z,41.40
2017-10-17T19:53:32.166Z,40.83
2017-10-17T19:56:02.201Z,41.93
2017-10-17T19:58:31.464Z,41.13
2017-10-17T20:01:01.786Z,36.97
2017-10-17T20:03:31.010Z,43.60
2017-10-17T20:06:00.293Z,40.73
2017-10-17T20:08:30.305Z,41.37
2017-10-17T20:10:59.580Z,40.27
2017-10-17T20:13:28.820Z,38.00
2017-10-17T20:15:58.118Z,39.97
2017-10-17T20:18:28.128Z,40.53
2017-10-17T20:20:58.200Z,37.90
2017-10-17T20:23:27.628Z,38.27
2017-10-17T20:25:56.951Z,39.00
2017-10-17T20:28:26.172Z,36.70
2017-10-17T20:30:55.431Z,39.77
2017-10-17T20:33:25.437Z,38.30
2017-10-17T20:35:54.677Z,33.97
2017-10-17T20:38:23.925Z,39.67
2017-10-17T20:40:53.166Z,37.67
2017-10-17T20:43:22.411Z,41.10
2017-10-17T20:45:52.677Z,38.57
2017-10-17T20:48:22.698Z,36.27
2017-10-17T20:50:52.713Z,33.70
2017-10-17T20:53:22.060Z,36.20
2017-10-17T20:55:51.307Z,37.10
2017-10-17T20:58:21.304Z,36.67
2017-10-17T21:00:50.557Z,38.73
2017-10-17T21:03:20.002Z,37.10
2017-10-17T21:05:49.255Z,37.40
2017-10-17T21:08:18.493Z,36.87
2017-10-17T21:10:47.767Z,38.80
2017-10-17T21:13:17.008Z,37.87
2017-10-17T21:15:47.022Z,38.57
2017-10-17T21:18:17.040Z,40.33
2017-10-17T21:20:46.284Z,40.50
2017-10-17T21:23:15.511Z,41.57
2017-10-17T21:25:44.744Z,39.03
2017-10-17T21:28:14.723Z,38.60
2017-10-17T21:30:46.404Z,38.50
2017-10-17T21:33:16.440Z,36.93
2017-10-17T21:35:46.436Z,37.27
2017-10-17T21:51:21.500Z,33.70
2017-10-17T21:53:50.723Z,37.00
2017-10-17T21:56:19.917Z,38.33
2017-10-17T21:58:49.166Z,40.60
2017-10-17T22:01:18.401Z,39.20
2017-10-17T22:03:47.657Z,38.57
2017-10-17T22:06:19.337Z,39.40
2017-10-17T22:08:51.517Z,37.07
2017-10-17T22:11:21.580Z,37.27
2017-10-17T22:13:50.828Z,36.27
2017-10-17T22:16:20.075Z,37.43
2017-10-17T22:18:49.319Z,35.50
2017-10-17T22:21:18.567Z,34.57
2017-10-17T22:23:47.817Z,34.53
2017-10-17T22:26:17.035Z,35.73
2017-10-17T22:28:46.244Z,33.83
2017-10-17T22:31:15.477Z,33.77
2017-10-17T22:33:45.537Z,33.27
2017-10-17T22:36:14.747Z,34.50
2017-10-17T22:38:43.956Z,32.03
2017-10-17T22:41:13.171Z,31.13
2017-10-17T22:43:42.430Z,33.20
2017-10-17T22:46:11.703Z,33.40
2017-10-17T22:48:41.076Z,33.10
2017-10-17T22:51:11.137Z,32.87
2017-10-17T22:53:40.385Z,33.03
2017-10-17T22:56:09.573Z,32.07
2017-10-17T22:58:38.929Z,33.83
2017-10-17T23:01:08.121Z,32.67
2017-10-17T23:03:37.377Z,30.97
2017-10-17T23:06:06.624Z,31.23
2017-10-17T23:08:35.875Z,32.17
2017-10-17T23:11:05.094Z,30.13
2017-10-17T23:13:35.090Z,30.97
2017-10-17T23:16:04.292Z,31.10
2017-10-17T23:32:20.772Z,28.10
2017-10-17T23:34:50.003Z,28.33
2017-10-17T23:37:19.208Z,32.33
2017-10-17T23:39:48.466Z,32.47
2017-10-17T23:42:17.663Z,29.07
2017-10-17T23:44:46.877Z,32.60
2017-10-17T23:47:16.879Z,30.63
2017-10-17T23:49:46.167Z,30.93
2017-10-17T23:52:15.580Z,31.10
2017-10-17T23:54:44.840Z,33.33
2017-10-17T23:57:14.052Z,33.30
2017-10-17T23:59:43.283Z,30.47
